sensor_id;sensor_type;location;lat;lon;timestamp;temperature;humidity
36458;DHT22;22480;50.546;12.292;2023-04-03T00:01:36;1.30;99.90
36458;DHT22;22480;50.546;12.292;2023-04-03T00:04:04;1.30;99.90
36458;DHT22;22480;50.546;12.292;2023-04-03T00:06:31;1.30;99.90
36458;DHT22;22480;50.546;12.292;2023-04-03T00:08:56;1.30;99.90
36458;DHT22;22480;50.546;12.292;2023-04-03T00:11:22;1.30;99.90
36458;DHT22;22480;50.546;12.292;2023-04-03T00:13:48;1.30;99.90
36458;DHT22;22480;50.546;12.292;2023-04-03T00:16:13;1.30;99.90
36458;DHT22;22480;50.546;12.292;2023-04-03T00:18:39;1.30;99.90
36458;DHT22;22480;50.546;12.292;2023-04-03T00:21:06;1.20;99.90
36458;DHT22;22480;50.546;12.292;2023-04-03T00:23:32;1.20;99.90
36458;DHT22;22480;50.546;12.292;2023-04-03T00:25:58;1.20;99.90
36458;DHT22;22480;50.546;12.292;2023-04-03T00:28:23;1.10;99.90
36458;DHT22;22480;50.546;12.292;2023-04-03T00:30:50;1.10;99.90
36458;DHT22;22480;50.546;12.292;2023-04-03T00:33:16;1.10;99.90
36458;DHT22;22480;50.546;12.292;2023-04-03T00:35:42;1.00;99.90
36458;DHT22;22480;50.546;12.292;2023-04-03T00:38:08;1.00;99.90
36458;DHT22;22480;50.546;12.292;2023-04-03T00:40:37;1.00;99.90
36458;DHT22;22480;50.546;12.292;2023-04-03T00:43:19;1.00;99.90
36458;DHT22;22480;50.546;12.292;2023-04-03T00:45:49;1.00;99.90
36458;DHT22;22480;50.546;12.292;2023-04-03T00:48:22;0.90;99.90
36458;DHT22;22480;50.546;12.292;2023-04-03T00:50:48;0.90;99.90
36458;DHT22;22480;50.546;12.292;2023-04-03T00:53:18;0.80;99.90
36458;DHT22;22480;50.546;12.292;2023-04-03T00:55:47;0.80;99.90
36458;DHT22;22480;50.546;12.292;2023-04-03T00:58:15;0.70;99.90
36458;DHT22;22480;50.546;12.292;2023-04-03T01:00:44;0.70;99.90
36458;DHT22;22480;50.546;12.292;2023-04-03T01:03:12;0.70;99.90
36458;DHT22;22480;50.546;12.292;2023-04-03T01:05:40;0.60;99.90
36458;DHT22;22480;50.546;12.292;2023-04-03T01:08:06;0.60;99.90
36458;DHT22;22480;50.546;12.292;2023-04-03T01:10:33;0.60;99.90
36458;DHT22;22480;50.546;12.292;2023-04-03T01:12:59;0.60;99.90
36458;DHT22;22480;50.546;12.292;2023-04-03T01:15:27;0.50;99.90
36458;DHT22;22480;50.546;12.292;2023-04-03T01:17:57;0.50;99.90
36458;DHT22;22480;50.546;12.292;2023-04-03T01:25:48;0.40;99.90
36458;DHT22;22480;50.546;12.292;2023-04-03T01:28:19;0.40;99.90
36458;DHT22;22480;50.546;12.292;2023-04-03T01:33:35;0.40;99.90
36458;DHT22;22480;50.546;12.292;2023-04-03T01:36:01;0.40;99.90
36458;DHT22;22480;50.546;12.292;2023-04-03T01:38:28;0.30;99.90
36458;DHT22;22480;50.546;12.292;2023-04-03T01:40:54;0.40;99.90
36458;DHT22;22480;50.546;12.292;2023-04-03T01:43:20;0.30;99.90
36458;DHT22;22480;50.546;12.292;2023-04-03T01:45:45;0.30;99.90
36458;DHT22;22480;50.546;12.292;2023-04-03T01:48:12;0.30;99.90
36458;DHT22;22480;50.546;12.292;2023-04-03T01:50:38;0.30;99.90
36458;DHT22;22480;50.546;12.292;2023-04-03T01:53:05;0.30;99.90
36458;DHT22;22480;50.546;12.292;2023-04-03T01:55:31;0.20;99.90
36458;DHT22;22480;50.546;12.292;2023-04-03T01:57:56;0.20;99.90
36458;DHT22;22480;50.546;12.292;2023-04-03T02:00:23;0.20;99.90
36458;DHT22;22480;50.546;12.292;2023-04-03T02:02:49;0.20;99.90
36458;DHT22;22480;50.546;12.292;2023-04-03T02:05:15;0.20;99.90
36458;DHT22;22480;50.546;12.292;2023-04-03T02:07:41;0.10;99.90
36458;DHT22;22480;50.546;12.292;2023-04-03T02:10:07;0.10;99.90
36458;DHT22;22480;50.546;12.292;2023-04-03T02:12:33;0.10;99.90
36458;DHT22;22480;50.546;12.292;2023-04-03T02:14:59;0.10;99.90
36458;DHT22;22480;50.546;12.292;2023-04-03T02:17:26;0.10;99.90
36458;DHT22;22480;50.546;12.292;2023-04-03T02:19:54;0.10;99.90
36458;DHT22;22480;50.546;12.292;2023-04-03T02:22:20;0.10;99.90
36458;DHT22;22480;50.546;12.292;2023-04-03T02:24:45;0.00;99.90
36458;DHT22;22480;50.546;12.292;2023-04-03T02:27:11;0.00;99.90
36458;DHT22;22480;50.546;12.292;2023-04-03T02:29:37;0.00;99.90
36458;DHT22;22480;50.546;12.292;2023-04-03T02:32:04;0.00;99.90
36458;DHT22;22480;50.546;12.292;2023-04-03T02:34:31;-0.10;99.90
36458;DHT22;22480;50.546;12.292;2023-04-03T02:36:58;-0.10;99.90
36458;DHT22;22480;50.546;12.292;2023-04-03T02:39:24;-0.10;99.90
36458;DHT22;22480;50.546;12.292;2023-04-03T02:41:50;-0.20;99.90
36458;DHT22;22480;50.546;12.292;2023-04-03T02:44:21;-0.20;99.90
36458;DHT22;22480;50.546;12.292;2023-04-03T02:46:49;-0.20;99.90
36458;DHT22;22480;50.546;12.292;2023-04-03T02:49:16;-0.20;99.90
36458;DHT22;22480;50.546;12.292;2023-04-03T02:51:42;-0.20;99.90
36458;DHT22;22480;50.546;12.292;2023-04-03T02:54:08;-0.20;99.90
36458;DHT22;22480;50.546;12.292;2023-04-03T02:56:37;-0.20;99.90
36458;DHT22;22480;50.546;12.292;2023-04-03T02:59:03;-0.20;99.90
36458;DHT22;22480;50.546;12.292;2023-04-03T03:01:29;-0.20;99.90
36458;DHT22;22480;50.546;12.292;2023-04-03T03:03:58;-0.30;99.90
36458;DHT22;22480;50.546;12.292;2023-04-03T03:06:23;-0.20;99.90
36458;DHT22;22480;50.546;12.292;2023-04-03T03:08:49;-0.30;99.90
36458;DHT22;22480;50.546;12.292;2023-04-03T03:11:15;-0.30;99.90
36458;DHT22;22480;50.546;12.292;2023-04-03T03:13:41;-0.30;99.90
36458;DHT22;22480;50.546;12.292;2023-04-03T03:16:07;-0.30;99.90
36458;DHT22;22480;50.546;12.292;2023-04-03T03:18:34;-0.30;99.90
36458;DHT22;22480;50.546;12.292;2023-04-03T03:21:01;-0.30;99.90
36458;DHT22;22480;50.546;12.292;2023-04-03T03:23:29;-0.40;99.90
36458;DHT22;22480;50.546;12.292;2023-04-03T03:25:57;-0.40;99.90
36458;DHT22;22480;50.546;12.292;2023-04-03T03:28:23;-0.40;99.90
36458;DHT22;22480;50.546;12.292;2023-04-03T03:30:49;-0.40;99.90
36458;DHT22;22480;50.546;12.292;2023-04-03T03:33:17;-0.40;99.90
36458;DHT22;22480;50.546;12.292;2023-04-03T03:35:43;-0.50;99.90
36458;DHT22;22480;50.546;12.292;2023-04-03T03:38:09;-0.50;99.90
36458;DHT22;22480;50.546;12.292;2023-04-03T03:40:35;-0.50;99.90
36458;DHT22;22480;50.546;12.292;2023-04-03T03:43:00;-0.50;99.90
36458;DHT22;22480;50.546;12.292;2023-04-03T03:45:26;-0.50;99.90
36458;DHT22;22480;50.546;12.292;2023-04-03T03:47:52;-0.60;99.90
36458;DHT22;22480;50.546;12.292;2023-04-03T03:50:18;-0.60;99.90
36458;DHT22;22480;50.546;12.292;2023-04-03T03:52:44;-0.60;99.90
36458;DHT22;22480;50.546;12.292;2023-04-03T03:55:11;-0.60;99.90
36458;DHT22;22480;50.546;12.292;2023-04-03T03:57:36;-0.60;99.90
36458;DHT22;22480;50.546;12.292;2023-04-03T04:00:02;-0.60;99.90
36458;DHT22;22480;50.546;12.292;2023-04-03T04:02:30;-0.60;99.90
36458;DHT22;22480;50.546;12.292;2023-04-03T04:04:56;-0.60;99.90
36458;DHT22;22480;50.546;12.292;2023-04-03T04:07:22;-0.60;99.90
36458;DHT22;22480;50.546;12.292;2023-04-03T04:09:48;-0.70;99.90
36458;DHT22;22480;50.546;12.292;2023-04-03T04:12:13;-0.60;99.90
36458;DHT22;22480;50.546;12.292;2023-04-03T04:14:39;-0.60;99.90
36458;DHT22;22480;50.546;12.292;2023-04-03T04:17:08;-0.70;99.90
36458;DHT22;22480;50.546;12.292;2023-04-03T04:19:35;-0.70;99.90
36458;DHT22;22480;50.546;12.292;2023-04-03T04:22:01;-0.70;99.90
36458;DHT22;22480;50.546;12.292;2023-04-03T04:24:28;-0.70;99.90
36458;DHT22;22480;50.546;12.292;2023-04-03T04:26:55;-0.70;99.90
36458;DHT22;22480;50.546;12.292;2023-04-03T04:29:22;-0.80;99.90
36458;DHT22;22480;50.546;12.292;2023-04-03T04:31:49;-0.80;99.90
36458;DHT22;22480;50.546;12.292;2023-04-03T04:34:15;-0.80;99.90
36458;DHT22;22480;50.546;12.292;2023-04-03T04:36:42;-0.80;99.90
36458;DHT22;22480;50.546;12.292;2023-04-03T04:39:07;-0.90;99.90
36458;DHT22;22480;50.546;12.292;2023-04-03T04:41:33;-0.90;99.90
36458;DHT22;22480;50.546;12.292;2023-04-03T04:44:01;-0.90;99.90
36458;DHT22;22480;50.546;12.292;2023-04-03T04:46:27;-0.90;99.90
36458;DHT22;22480;50.546;12.292;2023-04-03T04:48:56;-0.90;99.90
36458;DHT22;22480;50.546;12.292;2023-04-03T04:51:25;-1.00;99.90
36458;DHT22;22480;50.546;12.292;2023-04-03T04:53:51;-1.00;99.90
36458;DHT22;22480;50.546;12.292;2023-04-03T04:56:18;-1.00;99.90
36458;DHT22;22480;50.546;12.292;2023-04-03T04:58:45;-1.00;99.90
36458;DHT22;22480;50.546;12.292;2023-04-03T05:01:11;-1.00;99.90
36458;DHT22;22480;50.546;12.292;2023-04-03T05:03:48;-1.00;99.90
36458;DHT22;22480;50.546;12.292;2023-04-03T05:06:13;-1.00;99.90
36458;DHT22;22480;50.546;12.292;2023-04-03T05:08:39;-1.10;99.90
36458;DHT22;22480;50.546;12.292;2023-04-03T05:11:06;-1.00;99.90
36458;DHT22;22480;50.546;12.292;2023-04-03T05:13:33;-1.00;99.90
36458;DHT22;22480;50.546;12.292;2023-04-03T05:15:58;-1.00;99.90
36458;DHT22;22480;50.546;12.292;2023-04-03T05:18:25;-1.00;99.90
36458;DHT22;22480;50.546;12.292;2023-04-03T05:20:53;-0.90;99.90
36458;DHT22;22480;50.546;12.292;2023-04-03T05:23:19;-1.00;99.90
36458;DHT22;22480;50.546;12.292;2023-04-03T05:25:46;-1.00;99.90
36458;DHT22;22480;50.546;12.292;2023-04-03T05:28:14;-1.00;99.90
36458;DHT22;22480;50.546;12.292;2023-04-03T05:30:40;-1.00;99.90
36458;DHT22;22480;50.546;12.292;2023-04-03T05:33:07;-1.00;99.90
36458;DHT22;22480;50.546;12.292;2023-04-03T05:35:39;-1.00;99.90
36458;DHT22;22480;50.546;12.292;2023-04-03T05:38:09;-1.00;99.90
36458;DHT22;22480;50.546;12.292;2023-04-03T05:40:35;-1.00;99.90
36458;DHT22;22480;50.546;12.292;2023-04-03T05:43:00;-1.00;99.90
36458;DHT22;22480;50.546;12.292;2023-04-03T05:45:30;-0.90;99.90
36458;DHT22;22480;50.546;12.292;2023-04-03T05:47:57;-0.90;99.90
36458;DHT22;22480;50.546;12.292;2023-04-03T05:50:22;-0.90;99.90
36458;DHT22;22480;50.546;12.292;2023-04-03T05:52:52;-1.00;99.90
36458;DHT22;22480;50.546;12.292;2023-04-03T05:55:20;-1.10;99.90
36458;DHT22;22480;50.546;12.292;2023-04-03T05:57:47;-1.10;99.90
36458;DHT22;22480;50.546;12.292;2023-04-03T06:00:14;-1.10;99.90
36458;DHT22;22480;50.546;12.292;2023-04-03T06:02:42;-1.20;99.90
36458;DHT22;22480;50.546;12.292;2023-04-03T06:05:14;-1.00;99.90
36458;DHT22;22480;50.546;12.292;2023-04-03T06:07:40;-0.90;99.90
36458;DHT22;22480;50.546;12.292;2023-04-03T06:10:07;-0.80;99.90
36458;DHT22;22480;50.546;12.292;2023-04-03T06:12:33;-0.70;99.90
36458;DHT22;22480;50.546;12.292;2023-04-03T06:14:58;-0.70;99.90
36458;DHT22;22480;50.546;12.292;2023-04-03T06:17:24;-0.60;99.90
36458;DHT22;22480;50.546;12.292;2023-04-03T06:19:50;-0.60;99.90
36458;DHT22;22480;50.546;12.292;2023-04-03T06:22:16;-0.60;99.90
36458;DHT22;22480;50.546;12.292;2023-04-03T06:24:42;-0.60;99.90
36458;DHT22;22480;50.546;12.292;2023-04-03T06:27:10;-0.60;99.90
36458;DHT22;22480;50.546;12.292;2023-04-03T06:29:36;-0.50;99.90
36458;DHT22;22480;50.546;12.292;2023-04-03T06:32:02;-0.50;99.90
36458;DHT22;22480;50.546;12.292;2023-04-03T06:34:28;-0.50;99.90
36458;DHT22;22480;50.546;12.292;2023-04-03T06:36:53;-0.40;99.90
36458;DHT22;22480;50.546;12.292;2023-04-03T06:39:20;-0.40;99.90
36458;DHT22;22480;50.546;12.292;2023-04-03T06:41:48;-0.30;99.90
36458;DHT22;22480;50.546;12.292;2023-04-03T06:44:15;-0.30;99.90
36458;DHT22;22480;50.546;12.292;2023-04-03T06:46:42;-0.20;99.90
36458;DHT22;22480;50.546;12.292;2023-04-03T06:49:08;-0.10;99.90
36458;DHT22;22480;50.546;12.292;2023-04-03T06:51:34;0.00;99.90
36458;DHT22;22480;50.546;12.292;2023-04-03T06:54:01;0.00;99.90
36458;DHT22;22480;50.546;12.292;2023-04-03T06:56:28;0.00;99.90
36458;DHT22;22480;50.546;12.292;2023-04-03T06:58:54;0.00;99.90
36458;DHT22;22480;50.546;12.292;2023-04-03T07:01:21;0.00;99.90
36458;DHT22;22480;50.546;12.292;2023-04-03T07:03:48;0.00;99.90
36458;DHT22;22480;50.546;12.292;2023-04-03T07:06:15;0.10;99.90
36458;DHT22;22480;50.546;12.292;2023-04-03T07:08:42;0.20;99.90
36458;DHT22;22480;50.546;12.292;2023-04-03T07:11:09;0.20;99.90
36458;DHT22;22480;50.546;12.292;2023-04-03T07:13:34;0.30;99.90
36458;DHT22;22480;50.546;12.292;2023-04-03T07:16:00;0.30;99.90
36458;DHT22;22480;50.546;12.292;2023-04-03T07:18:26;0.40;99.90
36458;DHT22;22480;50.546;12.292;2023-04-03T07:20:52;0.40;99.90
36458;DHT22;22480;50.546;12.292;2023-04-03T07:23:18;0.40;99.90
36458;DHT22;22480;50.546;12.292;2023-04-03T07:25:45;0.50;99.90
36458;DHT22;22480;50.546;12.292;2023-04-03T07:28:11;0.40;99.90
36458;DHT22;22480;50.546;12.292;2023-04-03T07:31:00;0.40;99.90
36458;DHT22;22480;50.546;12.292;2023-04-03T07:33:26;0.40;99.90
36458;DHT22;22480;50.546;12.292;2023-04-03T07:35:52;0.40;99.90
36458;DHT22;22480;50.546;12.292;2023-04-03T07:38:18;0.40;99.90
36458;DHT22;22480;50.546;12.292;2023-04-03T07:40:48;0.50;99.90
36458;DHT22;22480;50.546;12.292;2023-04-03T07:43:17;0.70;99.90
36458;DHT22;22480;50.546;12.292;2023-04-03T07:45:44;0.90;99.90
36458;DHT22;22480;50.546;12.292;2023-04-03T07:48:11;1.20;99.90
36458;DHT22;22480;50.546;12.292;2023-04-03T07:50:39;1.50;99.90
36458;DHT22;22480;50.546;12.292;2023-04-03T07:53:05;1.70;99.90
36458;DHT22;22480;50.546;12.292;2023-04-03T07:55:32;1.70;99.90
36458;DHT22;22480;50.546;12.292;2023-04-03T07:57:57;1.80;99.90
36458;DHT22;22480;50.546;12.292;2023-04-03T08:00:23;2.00;99.90
36458;DHT22;22480;50.546;12.292;2023-04-03T08:02:49;2.10;99.90
36458;DHT22;22480;50.546;12.292;2023-04-03T08:05:19;2.30;99.90
36458;DHT22;22480;50.546;12.292;2023-04-03T08:07:46;2.30;99.90
36458;DHT22;22480;50.546;12.292;2023-04-03T08:10:12;2.80;99.90
36458;DHT22;22480;50.546;12.292;2023-04-03T08:12:38;3.00;99.90
36458;DHT22;22480;50.546;12.292;2023-04-03T08:15:04;2.80;99.90
36458;DHT22;22480;50.546;12.292;2023-04-03T08:17:30;2.40;99.90
36458;DHT22;22480;50.546;12.292;2023-04-03T08:19:55;1.80;99.90
36458;DHT22;22480;50.546;12.292;2023-04-03T08:22:21;1.30;99.90
36458;DHT22;22480;50.546;12.292;2023-04-03T08:24:47;1.30;99.90
36458;DHT22;22480;50.546;12.292;2023-04-03T08:27:12;1.20;99.90
36458;DHT22;22480;50.546;12.292;2023-04-03T08:29:38;1.00;99.90
36458;DHT22;22480;50.546;12.292;2023-04-03T08:32:05;1.00;99.90
36458;DHT22;22480;50.546;12.292;2023-04-03T08:34:31;1.30;99.90
36458;DHT22;22480;50.546;12.292;2023-04-03T08:37:00;1.60;99.90
36458;DHT22;22480;50.546;12.292;2023-04-03T08:39:26;1.90;99.90
36458;DHT22;22480;50.546;12.292;2023-04-03T08:41:52;2.50;99.90
36458;DHT22;22480;50.546;12.292;2023-04-03T08:45:08;3.10;99.90
36458;DHT22;22480;50.546;12.292;2023-04-03T08:49:43;4.50;99.90
36458;DHT22;22480;50.546;12.292;2023-04-03T08:52:18;4.70;91.80
36458;DHT22;22480;50.546;12.292;2023-04-03T08:54:53;4.60;92.00
36458;DHT22;22480;50.546;12.292;2023-04-03T08:57:38;4.50;99.60
36458;DHT22;22480;50.546;12.292;2023-04-03T09:00:17;5.10;99.90
36458;DHT22;22480;50.546;12.292;2023-04-03T09:02:47;5.50;91.90
36458;DHT22;22480;50.546;12.292;2023-04-03T09:05:19;5.40;91.10
36458;DHT22;22480;50.546;12.292;2023-04-03T09:10:29;5.30;93.80
36458;DHT22;22480;50.546;12.292;2023-04-03T09:15:36;5.00;88.00
36458;DHT22;22480;50.546;12.292;2023-04-03T09:18:36;4.10;90.40
36458;DHT22;22480;50.546;12.292;2023-04-03T09:23:42;3.10;98.00
36458;DHT22;22480;50.546;12.292;2023-04-03T09:29:16;3.20;94.20
36458;DHT22;22480;50.546;12.292;2023-04-03T09:31:44;3.90;84.50
36458;DHT22;22480;50.546;12.292;2023-04-03T09:36:52;5.40;92.50
36458;DHT22;22480;50.546;12.292;2023-04-03T09:39:24;5.30;81.00
36458;DHT22;22480;50.546;12.292;2023-04-03T09:46:59;5.10;80.70
36458;DHT22;22480;50.546;12.292;2023-04-03T09:49:25;4.90;76.10
36458;DHT22;22480;50.546;12.292;2023-04-03T09:51:50;5.20;77.40
36458;DHT22;22480;50.546;12.292;2023-04-03T09:54:37;5.60;74.90
36458;DHT22;22480;50.546;12.292;2023-04-03T09:57:10;5.30;79.10
36458;DHT22;22480;50.546;12.292;2023-04-03T09:59:45;5.70;75.00
36458;DHT22;22480;50.546;12.292;2023-04-03T10:04:39;6.30;71.70
36458;DHT22;22480;50.546;12.292;2023-04-03T10:07:35;7.00;72.60
36458;DHT22;22480;50.546;12.292;2023-04-03T10:10:21;7.10;73.30
36458;DHT22;22480;50.546;12.292;2023-04-03T10:12:48;7.80;62.70
36458;DHT22;22480;50.546;12.292;2023-04-03T10:15:16;7.90;64.30
36458;DHT22;22480;50.546;12.292;2023-04-03T10:20:37;7.50;64.50
36458;DHT22;22480;50.546;12.292;2023-04-03T10:23:27;6.80;71.10
36458;DHT22;22480;50.546;12.292;2023-04-03T10:26:08;7.30;71.10
36458;DHT22;22480;50.546;12.292;2023-04-03T10:28:57;8.20;65.90
36458;DHT22;22480;50.546;12.292;2023-04-03T10:31:37;8.30;62.90
36458;DHT22;22480;50.546;12.292;2023-04-03T10:34:23;7.20;68.60
36458;DHT22;22480;50.546;12.292;2023-04-03T10:37:10;5.70;70.20
36458;DHT22;22480;50.546;12.292;2023-04-03T10:42:49;5.60;77.30
36458;DHT22;22480;50.546;12.292;2023-04-03T10:48:12;5.80;68.30
36458;DHT22;22480;50.546;12.292;2023-04-03T10:51:00;6.70;66.50
36458;DHT22;22480;50.546;12.292;2023-04-03T11:01:41;10.30;58.50
36458;DHT22;22480;50.546;12.292;2023-04-03T11:04:10;10.50;55.50
36458;DHT22;22480;50.546;12.292;2023-04-03T11:06:49;9.40;59.60
36458;DHT22;22480;50.546;12.292;2023-04-03T11:09:28;9.10;62.50
36458;DHT22;22480;50.546;12.292;2023-04-03T11:12:01;8.50;63.10
36458;DHT22;22480;50.546;12.292;2023-04-03T11:14:31;7.30;66.60
36458;DHT22;22480;50.546;12.292;2023-04-03T11:19:48;5.20;68.40
36458;DHT22;22480;50.546;12.292;2023-04-03T11:22:34;5.00;76.20
36458;DHT22;22480;50.546;12.292;2023-04-03T11:30:25;5.30;82.30
36458;DHT22;22480;50.546;12.292;2023-04-03T11:35:46;6.40;73.00
36458;DHT22;22480;50.546;12.292;2023-04-03T11:38:19;6.10;63.20
36458;DHT22;22480;50.546;12.292;2023-04-03T11:40:47;6.70;67.30
36458;DHT22;22480;50.546;12.292;2023-04-03T11:43:29;7.70;67.00
36458;DHT22;22480;50.546;12.292;2023-04-03T11:46:01;8.70;58.80
36458;DHT22;22480;50.546;12.292;2023-04-03T11:50:55;9.40;56.90
36458;DHT22;22480;50.546;12.292;2023-04-03T11:53:35;10.30;54.50
36458;DHT22;22480;50.546;12.292;2023-04-03T12:01:55;8.40;60.30
36458;DHT22;22480;50.546;12.292;2023-04-03T12:04:26;7.00;66.00
36458;DHT22;22480;50.546;12.292;2023-04-03T12:07:19;6.30;70.80
36458;DHT22;22480;50.546;12.292;2023-04-03T12:12:37;5.80;69.10
36458;DHT22;22480;50.546;12.292;2023-04-03T12:15:26;5.50;71.30
36458;DHT22;22480;50.546;12.292;2023-04-03T12:17:52;5.40;72.30
36458;DHT22;22480;50.546;12.292;2023-04-03T12:20:52;5.20;76.70
36458;DHT22;22480;50.546;12.292;2023-04-03T12:23:31;5.20;72.90
36458;DHT22;22480;50.546;12.292;2023-04-03T12:26:23;4.80;76.30
36458;DHT22;22480;50.546;12.292;2023-04-03T12:28:47;5.30;77.30
36458;DHT22;22480;50.546;12.292;2023-04-03T12:31:14;6.70;68.00
36458;DHT22;22480;50.546;12.292;2023-04-03T12:34:01;7.40;62.50
36458;DHT22;22480;50.546;12.292;2023-04-03T12:39:23;8.20;61.40
36458;DHT22;22480;50.546;12.292;2023-04-03T12:42:05;7.70;60.60
36458;DHT22;22480;50.546;12.292;2023-04-03T12:47:28;7.50;62.40
36458;DHT22;22480;50.546;12.292;2023-04-03T12:49:54;6.90;62.00
36458;DHT22;22480;50.546;12.292;2023-04-03T12:55:14;5.70;66.20
36458;DHT22;22480;50.546;12.292;2023-04-03T12:57:40;5.50;64.50
36458;DHT22;22480;50.546;12.292;2023-04-03T13:02:48;7.30;63.40
36458;DHT22;22480;50.546;12.292;2023-04-03T13:05:17;8.70;58.40
36458;DHT22;22480;50.546;12.292;2023-04-03T13:07:43;8.90;54.30
36458;DHT22;22480;50.546;12.292;2023-04-03T13:12:46;8.60;55.30
36458;DHT22;22480;50.546;12.292;2023-04-03T13:15:42;8.70;54.50
36458;DHT22;22480;50.546;12.292;2023-04-03T13:20:51;6.80;60.50
36458;DHT22;22480;50.546;12.292;2023-04-03T13:23:19;6.30;62.40
36458;DHT22;22480;50.546;12.292;2023-04-03T13:25:46;5.90;64.60
36458;DHT22;22480;50.546;12.292;2023-04-03T13:28:15;6.20;65.10
36458;DHT22;22480;50.546;12.292;2023-04-03T13:30:59;7.30;59.30
36458;DHT22;22480;50.546;12.292;2023-04-03T13:33:29;7.50;57.00
36458;DHT22;22480;50.546;12.292;2023-04-03T13:36:02;7.30;59.30
36458;DHT22;22480;50.546;12.292;2023-04-03T13:38:30;6.60;61.00
36458;DHT22;22480;50.546;12.292;2023-04-03T13:41:02;6.40;66.40
36458;DHT22;22480;50.546;12.292;2023-04-03T13:43:33;6.10;66.10
36458;DHT22;22480;50.546;12.292;2023-04-03T13:46:05;6.10;66.10
36458;DHT22;22480;50.546;12.292;2023-04-03T13:48:40;5.70;66.20
36458;DHT22;22480;50.546;12.292;2023-04-03T13:53:52;5.50;71.00
36458;DHT22;22480;50.546;12.292;2023-04-03T13:56:24;6.90;63.20
36458;DHT22;22480;50.546;12.292;2023-04-03T13:59:19;8.50;58.70
36458;DHT22;22480;50.546;12.292;2023-04-03T14:04:25;7.50;58.10
36458;DHT22;22480;50.546;12.292;2023-04-03T14:06:52;6.20;58.00
36458;DHT22;22480;50.546;12.292;2023-04-03T14:09:20;5.20;62.80
36458;DHT22;22480;50.546;12.292;2023-04-03T14:11:47;4.90;63.80
36458;DHT22;22480;50.546;12.292;2023-04-03T14:14:33;5.30;64.80
36458;DHT22;22480;50.546;12.292;2023-04-03T14:17:01;5.40;67.00
36458;DHT22;22480;50.546;12.292;2023-04-03T14:19:34;5.20;68.70
36458;DHT22;22480;50.546;12.292;2023-04-03T14:22:05;5.00;71.50
36458;DHT22;22480;50.546;12.292;2023-04-03T14:24:31;4.70;68.10
36458;DHT22;22480;50.546;12.292;2023-04-03T14:26:57;4.70;67.90
36458;DHT22;22480;50.546;12.292;2023-04-03T14:29:24;4.60;67.60
36458;DHT22;22480;50.546;12.292;2023-04-03T14:31:50;4.60;68.90
36458;DHT22;22480;50.546;12.292;2023-04-03T14:34:16;4.40;67.10
36458;DHT22;22480;50.546;12.292;2023-04-03T14:36:43;4.80;70.40
36458;DHT22;22480;50.546;12.292;2023-04-03T14:39:15;5.50;63.10
36458;DHT22;22480;50.546;12.292;2023-04-03T14:41:43;5.40;64.60
36458;DHT22;22480;50.546;12.292;2023-04-03T14:44:09;5.10;64.70
36458;DHT22;22480;50.546;12.292;2023-04-03T14:46:36;4.90;64.50
36458;DHT22;22480;50.546;12.292;2023-04-03T14:49:08;4.70;67.30
36458;DHT22;22480;50.546;12.292;2023-04-03T14:51:37;4.40;68.70
36458;DHT22;22480;50.546;12.292;2023-04-03T14:54:05;4.10;71.50
36458;DHT22;22480;50.546;12.292;2023-04-03T14:56:30;4.00;76.00
36458;DHT22;22480;50.546;12.292;2023-04-03T14:58:58;3.80;71.00
36458;DHT22;22480;50.546;12.292;2023-04-03T15:01:25;3.50;73.10
36458;DHT22;22480;50.546;12.292;2023-04-03T15:03:51;3.60;74.90
36458;DHT22;22480;50.546;12.292;2023-04-03T15:06:17;3.60;72.40
36458;DHT22;22480;50.546;12.292;2023-04-03T15:08:44;3.60;72.20
36458;DHT22;22480;50.546;12.292;2023-04-03T15:11:12;3.50;71.80
36458;DHT22;22480;50.546;12.292;2023-04-03T15:13:40;3.40;72.90
36458;DHT22;22480;50.546;12.292;2023-04-03T15:16:17;3.40;76.80
36458;DHT22;22480;50.546;12.292;2023-04-03T15:18:44;3.30;80.70
36458;DHT22;22480;50.546;12.292;2023-04-03T15:21:10;3.20;84.70
36458;DHT22;22480;50.546;12.292;2023-04-03T15:23:36;3.10;85.30
36458;DHT22;22480;50.546;12.292;2023-04-03T15:26:02;3.00;84.60
36458;DHT22;22480;50.546;12.292;2023-04-03T15:28:35;2.90;86.80
36458;DHT22;22480;50.546;12.292;2023-04-03T15:31:01;2.90;90.70
36458;DHT22;22480;50.546;12.292;2023-04-03T15:33:27;3.00;83.80
36458;DHT22;22480;50.546;12.292;2023-04-03T15:35:54;3.00;89.00
36458;DHT22;22480;50.546;12.292;2023-04-03T15:38:20;3.10;81.60
36458;DHT22;22480;50.546;12.292;2023-04-03T15:40:46;3.00;76.90
36458;DHT22;22480;50.546;12.292;2023-04-03T15:43:13;3.00;83.10
36458;DHT22;22480;50.546;12.292;2023-04-03T15:45:39;3.10;82.20
36458;DHT22;22480;50.546;12.292;2023-04-03T15:48:06;3.10;81.80
36458;DHT22;22480;50.546;12.292;2023-04-03T15:50:33;3.00;79.50
36458;DHT22;22480;50.546;12.292;2023-04-03T15:52:59;2.90;80.30
36458;DHT22;22480;50.546;12.292;2023-04-03T15:55:29;2.90;76.00
36458;DHT22;22480;50.546;12.292;2023-04-03T15:57:55;2.80;81.40
36458;DHT22;22480;50.546;12.292;2023-04-03T16:00:21;2.80;85.80
36458;DHT22;22480;50.546;12.292;2023-04-03T16:02:49;2.60;83.80
36458;DHT22;22480;50.546;12.292;2023-04-03T16:05:16;2.60;90.40
36458;DHT22;22480;50.546;12.292;2023-04-03T16:07:43;2.50;93.40
36458;DHT22;22480;50.546;12.292;2023-04-03T16:10:10;2.50;90.70
36458;DHT22;22480;50.546;12.292;2023-04-03T16:12:36;2.50;92.80
36458;DHT22;22480;50.546;12.292;2023-04-03T16:15:03;2.40;91.20
36458;DHT22;22480;50.546;12.292;2023-04-03T16:17:29;2.50;95.80
36458;DHT22;22480;50.546;12.292;2023-04-03T16:19:55;2.50;94.30
36458;DHT22;22480;50.546;12.292;2023-04-03T16:22:23;2.40;87.30
36458;DHT22;22480;50.546;12.292;2023-04-03T16:24:50;2.40;86.90
36458;DHT22;22480;50.546;12.292;2023-04-03T16:27:16;2.30;85.10
36458;DHT22;22480;50.546;12.292;2023-04-03T16:29:41;2.20;86.30
36458;DHT22;22480;50.546;12.292;2023-04-03T16:32:07;2.20;86.30
36458;DHT22;22480;50.546;12.292;2023-04-03T16:34:33;2.10;84.10
36458;DHT22;22480;50.546;12.292;2023-04-03T16:36:59;2.10;89.30
36458;DHT22;22480;50.546;12.292;2023-04-03T16:39:25;2.00;91.00
36458;DHT22;22480;50.546;12.292;2023-04-03T16:41:51;1.90;94.50
36458;DHT22;22480;50.546;12.292;2023-04-03T16:44:16;1.90;91.70
36458;DHT22;22480;50.546;12.292;2023-04-03T16:46:42;1.80;94.20
36458;DHT22;22480;50.546;12.292;2023-04-03T16:49:08;1.70;94.60
36458;DHT22;22480;50.546;12.292;2023-04-03T16:51:34;1.70;96.00
36458;DHT22;22480;50.546;12.292;2023-04-03T16:54:00;1.70;99.10
36458;DHT22;22480;50.546;12.292;2023-04-03T16:56:25;1.70;95.20
36458;DHT22;22480;50.546;12.292;2023-04-03T16:58:54;1.60;95.30
36458;DHT22;22480;50.546;12.292;2023-04-03T17:01:21;1.60;91.10
36458;DHT22;22480;50.546;12.292;2023-04-03T17:03:47;1.60;91.60
36458;DHT22;22480;50.546;12.292;2023-04-03T17:06:17;1.50;91.80
36458;DHT22;22480;50.546;12.292;2023-04-03T17:08:45;1.50;92.20
36458;DHT22;22480;50.546;12.292;2023-04-03T17:11:25;1.50;91.10